Time;durP1;ratioP1;P1;durP2;ratioP2;P2;SDS_P1;SDS_P2;PMS_P1;PMS_P2;Temp;Humidity;BMP_temperature;BMP_pressure;BME280_temperature;BME280_humidity;BME280_pressure;Samples;Min_cycle;Max_cycle;Signal;HPM_P1;HPM_P2
2023/05/26 00:02:06;;;;;;;23.08;4.20;;;11.40;99.90;;;;;;5063971;28;20063;-58
2023/05/26 00:04:37;;;;;;;24.67;5.03;;;11.30;99.90;;;;;;5059975;28;20510;-57
2023/05/26 00:07:05;;;;;;;21.00;3.38;;;11.20;99.90;;;;;;5048735;28;20052;-58
2023/05/26 00:09:33;;;;;;;22.95;4.05;;;11.20;99.90;;;;;;5059005;28;20055;-58
2023/05/26 00:12:01;;;;;;;17.85;4.18;;;11.10;99.90;;;;;;5064480;28;20056;-56
2023/05/26 00:14:29;;;;;;;28.95;5.05;;;11.00;99.90;;;;;;5054928;28;20052;-57
2023/05/26 00:16:56;;;;;;;19.90;6.72;;;11.00;99.90;;;;;;5065735;28;20476;-57
2023/05/26 00:19:24;;;;;;;17.98;4.13;;;11.00;99.90;;;;;;5064431;28;20052;-59
2023/05/26 00:21:52;;;;;;;24.70;5.13;;;10.90;99.90;;;;;;5059697;28;20032;-58
2023/05/26 00:24:20;;;;;;;25.00;5.50;;;10.80;99.90;;;;;;5063582;28;20427;-57
2023/05/26 00:26:47;;;;;;;17.38;4.15;;;10.70;99.90;;;;;;5065242;28;20052;-58
2023/05/26 00:29:15;;;;;;;18.90;4.35;;;10.70;99.90;;;;;;5062460;28;20033;-57
2023/05/26 00:31:56;;;;;;;16.05;3.55;;;10.60;99.90;;;;;;5064897;28;20063;-57
2023/05/26 00:34:26;;;;;;;19.95;3.95;;;10.60;99.90;;;;;;5065023;28;20051;-57
2023/05/26 00:36:54;;;;;;;18.90;4.07;;;10.60;99.90;;;;;;5051745;28;20060;-58
2023/05/26 00:39:21;;;;;;;15.82;3.88;;;10.50;99.90;;;;;;5042403;28;20059;-57
2023/05/26 00:41:49;;;;;;;18.35;3.92;;;10.50;99.90;;;;;;5066637;28;20051;-57
2023/05/26 00:44:17;;;;;;;23.83;4.65;;;10.50;99.90;;;;;;5071280;28;20067;-58
2023/05/26 00:46:45;;;;;;;11.02;3.47;;;10.40;99.90;;;;;;5058709;28;20048;-58
2023/05/26 00:49:13;;;;;;;18.67;4.75;;;10.40;99.90;;;;;;5067815;28;20037;-58
2023/05/26 00:51:44;;;;;;;18.98;4.53;;;10.40;99.90;;;;;;5058472;28;20045;-58
2023/05/26 00:54:16;;;;;;;20.73;4.00;;;10.40;99.90;;;;;;5071788;28;20052;-59
2023/05/26 00:56:44;;;;;;;20.80;4.40;;;10.30;99.90;;;;;;5050119;28;20044;-58
2023/05/26 00:59:13;;;;;;;17.00;4.13;;;10.20;99.90;;;;;;5055195;28;20059;-57
2023/05/26 01:01:42;;;;;;;17.98;3.88;;;;;;;;;;5051330;28;20048;-56
2023/05/26 01:04:11;;;;;;;22.48;4.32;;;10.20;99.90;;;;;;5057796;28;20045;-57
2023/05/26 01:06:40;;;;;;;22.00;6.43;;;10.20;99.90;;;;;;5049567;28;20051;-58
2023/05/26 01:09:09;;;;;;;21.13;4.13;;;10.20;99.90;;;;;;5060812;28;20058;-58
2023/05/26 01:11:56;;;;;;;19.15;4.68;;;10.10;99.90;;;;;;5056777;28;20048;-58
2023/05/26 01:14:44;;;;;;;19.00;4.03;;;10.10;99.90;;;;;;5061900;28;20033;-57
2023/05/26 01:17:18;;;;;;;20.23;3.95;;;10.10;99.90;;;;;;5065177;28;20506;-58
2023/05/26 01:20:08;;;;;;;19.58;4.70;;;10.00;99.90;;;;;;5059855;28;20056;-57
2023/05/26 01:22:51;;;;;;;;;;;9.90;99.90;;;;;;5064883;28;20044;-57
2023/05/26 01:25:40;;;;;;;20.73;4.00;;;9.90;99.90;;;;;;5061728;28;19927;-58
2023/05/26 01:28:15;;;;;;;12.88;3.70;;;9.90;99.90;;;;;;5063801;28;20056;-57
2023/05/26 01:30:44;;;;;;;17.23;3.90;;;9.80;99.90;;;;;;5057788;28;20395;-57
2023/05/26 01:33:12;;;;;;;22.75;3.70;;;9.80;99.90;;;;;;5065467;28;20055;-56
2023/05/26 01:35:41;;;;;;;21.17;4.50;;;9.70;99.90;;;;;;5056294;28;20489;-57
2023/05/26 01:38:09;;;;;;;18.95;4.75;;;9.70;99.90;;;;;;5052689;28;20396;-57
2023/05/26 01:40:41;;;;;;;27.60;4.97;;;9.70;99.90;;;;;;5069693;28;20052;-58
2023/05/26 01:43:20;;;;;;;14.88;4.15;;;9.60;99.90;;;;;;5052126;28;20537;-57
2023/05/26 01:46:02;;;;;;;18.75;3.53;;;9.60;99.90;;;;;;5050628;28;20044;-57
2023/05/26 01:48:34;;;;;;;18.65;4.30;;;9.60;99.90;;;;;;5043690;28;20056;-58
2023/05/26 01:51:06;;;;;;;15.63;4.57;;;9.60;99.90;;;;;;5069487;28;20045;-56
2023/05/26 01:53:37;;;;;;;15.25;3.90;;;9.50;99.90;;;;;;5074068;28;20048;-56
2023/05/26 01:56:05;;;;;;;18.90;4.95;;;;;;;;;;5065286;28;20045;-56
2023/05/26 01:58:34;;;;;;;23.60;4.88;;;9.40;99.90;;;;;;5061283;28;20503;-56
2023/05/26 02:01:03;;;;;;;16.13;4.05;;;9.40;99.90;;;;;;5067831;28;20052;-56
2023/05/26 02:03:34;;;;;;;11.45;3.53;;;9.40;99.90;;;;;;5062266;28;20068;-56
2023/05/26 02:06:04;;;;;;;21.17;4.13;;;9.40;99.90;;;;;;5062522;28;20048;-57
2023/05/26 02:08:35;;;;;;;15.43;3.88;;;9.30;99.90;;;;;;5058387;28;20048;-57
2023/05/26 02:11:03;;;;;;;12.48;3.85;;;9.30;99.90;;;;;;5070700;28;20044;-56
2023/05/26 02:13:31;;;;;;;20.50;4.25;;;9.30;99.90;;;;;;5070965;28;20044;-57
2023/05/26 02:15:59;;;;;;;22.13;4.68;;;9.30;99.90;;;;;;5070674;28;20040;-57
2023/05/26 02:18:27;;;;;;;18.25;4.13;;;9.30;99.90;;;;;;5072235;28;20044;-58
2023/05/26 02:20:55;;;;;;;19.30;4.15;;;9.20;99.90;;;;;;5070408;28;20064;-58
2023/05/26 02:23:23;;;;;;;27.38;5.20;;;9.30;99.90;;;;;;5071679;28;20048;-57
2023/05/26 02:25:50;;;;;;;18.67;4.32;;;9.20;99.90;;;;;;5060871;28;20396;-58
2023/05/26 02:28:20;;;;;;;16.42;3.50;;;9.20;99.90;;;;;;5064412;28;20049;-58
2023/05/26 02:30:47;;;;;;;12.10;4.10;;;9.10;99.90;;;;;;5069278;28;20044;-59
2023/05/26 02:33:16;;;;;;;16.27;4.70;;;9.10;99.90;;;;;;5068914;28;20043;-59
2023/05/26 02:35:44;;;;;;;18.88;3.90;;;9.10;99.90;;;;;;5070429;28;20510;-57
2023/05/26 02:38:12;;;;;;;25.58;5.60;;;9.10;99.90;;;;;;5088370;28;20041;-58
2023/05/26 02:40:40;;;;;;;16.73;4.38;;;9.00;99.90;;;;;;5069549;28;20403;-57
2023/05/26 02:43:08;;;;;;;14.15;3.65;;;9.00;99.90;;;;;;5071217;28;20119;-57
2023/05/26 02:45:36;;;;;;;25.85;5.68;;;9.00;99.90;;;;;;5070573;28;20040;-55
2023/05/26 02:48:04;;;;;;;31.48;5.65;;;8.90;99.90;;;;;;5065158;28;20495;-56
2023/05/26 02:50:32;;;;;;;21.48;5.03;;;8.90;99.90;;;;;;5069407;28;20055;-56
2023/05/26 02:53:00;;;;;;;17.90;3.83;;;8.90;99.90;;;;;;5069725;28;20052;-56
2023/05/26 02:55:27;;;;;;;20.25;4.43;;;8.90;99.90;;;;;;5069438;28;20045;-56
2023/05/26 02:57:55;;;;;;;18.77;3.90;;;8.90;99.90;;;;;;5056561;28;20063;-56
2023/05/26 03:00:23;;;;;;;17.73;4.32;;;8.80;99.90;;;;;;5067690;28;20049;-57
2023/05/26 03:02:51;;;;;;;13.73;4.63;;;8.80;99.90;;;;;;5061866;28;20048;-56
2023/05/26 03:05:19;;;;;;;21.63;4.80;;;8.80;99.90;;;;;;5052053;28;20045;-57
2023/05/26 03:07:47;;;;;;;21.00;3.75;;;8.80;99.90;;;;;;5058188;28;20036;-56
2023/05/26 03:10:15;;;;;;;19.90;5.50;;;8.70;99.90;;;;;;5071913;28;20064;-57
2023/05/26 03:12:43;;;;;;;16.90;3.47;;;8.70;99.90;;;;;;5064600;28;20633;-58
2023/05/26 03:15:13;;;;;;;16.85;3.58;;;8.70;99.90;;;;;;5066894;28;20428;-56
2023/05/26 03:17:41;;;;;;;19.15;4.10;;;8.70;99.90;;;;;;5065038;28;20048;-56
2023/05/26 03:20:11;;;;;;;16.17;4.25;;;8.60;99.90;;;;;;5053358;28;20040;-56
2023/05/26 03:22:40;;;;;;;15.32;3.65;;;8.60;99.90;;;;;;5069621;28;20048;-56
2023/05/26 03:25:19;;;;;;;24.00;4.63;;;8.60;99.90;;;;;;5068249;28;20080;-56
2023/05/26 03:27:49;;;;;;;22.80;4.43;;;8.60;99.90;;;;;;5069556;28;20622;-56
2023/05/26 03:30:18;;;;;;;22.45;3.83;;;8.50;99.90;;;;;;5057135;28;20056;-56
2023/05/26 03:32:48;;;;;;;18.02;3.90;;;8.50;99.90;;;;;;5062481;28;20048;-56
2023/05/26 03:35:16;;;;;;;17.40;4.50;;;8.50;99.90;;;;;;5026068;28;1143863;-57
2023/05/26 03:37:44;;;;;;;14.77;4.68;;;8.40;99.90;;;;;;5071137;28;20528;-57
2023/05/26 03:40:15;;;;;;;15.77;4.10;;;8.40;99.90;;;;;;5070743;28;20045;-57
2023/05/26 03:42:43;;;;;;;16.17;4.25;;;8.40;99.90;;;;;;5071423;28;20041;-57
2023/05/26 03:45:15;;;;;;;17.98;5.00;;;8.40;99.90;;;;;;5067724;28;20055;-57
2023/05/26 03:47:43;;;;;;;14.88;3.72;;;8.40;99.90;;;;;;5071560;28;20051;-57
2023/05/26 03:50:13;;;;;;;20.85;3.83;;;8.30;99.90;;;;;;5059502;28;20053;-56
2023/05/26 03:52:41;;;;;;;17.83;3.78;;;8.30;99.90;;;;;;5063093;28;20483;-56
2023/05/26 03:55:10;;;;;;;15.90;4.47;;;8.30;99.90;;;;;;5070334;28;20093;-56
2023/05/26 03:57:39;;;;;;;;;;;8.30;99.90;;;;;;5063097;28;20048;-56
2023/05/26 04:00:07;;;;;;;16.80;3.60;;;8.20;99.90;;;;;;5063637;28;19928;-56
2023/05/26 04:02:43;;;;;;;17.48;3.90;;;8.20;99.90;;;;;;5066762;28;20515;-56
2023/05/26 04:05:12;;;;;;;20.15;3.85;;;8.20;99.90;;;;;;5071390;28;20059;-55
2023/05/26 04:07:42;;;;;;;15.70;4.22;;;8.10;99.90;;;;;;5070503;28;20036;-56
2023/05/26 04:10:11;;;;;;;;;;;8.20;99.90;;;;;;5069801;28;20039;-57
2023/05/26 04:12:40;;;;;;;14.50;3.42;;;8.20;99.90;;;;;;5060819;28;20372;-57
2023/05/26 04:15:11;;;;;;;14.73;4.25;;;8.10;99.90;;;;;;5052971;28;20496;-56
2023/05/26 04:17:41;;;;;;;16.00;4.20;;;8.10;99.90;;;;;;5059153;28;20037;-55
2023/05/26 04:20:10;;;;;;;19.35;4.82;;;8.10;99.90;;;;;;5063785;28;20041;-56
2023/05/26 04:22:39;;;;;;;11.90;3.65;;;8.10;99.90;;;;;;5076146;28;20056;-56
2023/05/26 04:25:07;;;;;;;14.93;4.13;;;8.10;99.90;;;;;;5066806;28;20044;-56
2023/05/26 04:27:47;;;;;;;19.83;4.90;;;8.10;99.90;;;;;;5069890;28;20071;-56
2023/05/26 04:30:39;;;;;;;15.13;4.25;;;8.10;99.90;;;;;;5070028;28;20036;-58
2023/05/26 04:33:33;;;;;;;14.07;3.90;;;8.10;99.90;;;;;;5066298;28;20056;-57
2023/05/26 04:36:10;;;;;;;12.15;3.78;;;8.10;99.90;;;;;;5067865;28;20056;-56
2023/05/26 04:38:45;;;;;;;16.80;4.22;;;8.00;99.90;;;;;;5071036;28;20037;-57
2023/05/26 04:41:13;;;;;;;24.45;5.03;;;8.00;99.90;;;;;;5070307;28;20044;-57
2023/05/26 04:43:43;;;;;;;20.23;5.43;;;8.00;99.90;;;;;;5069577;28;20384;-57
2023/05/26 04:46:11;;;;;;;16.65;4.05;;;8.00;99.90;;;;;;5067238;28;20055;-57
2023/05/26 04:48:39;;;;;;;22.95;3.90;;;8.10;99.90;;;;;;5052010;28;20071;-57
2023/05/26 04:51:08;;;;;;;15.80;4.80;;;;;;;;;;5059098;28;20052;-55
2023/05/26 04:53:36;;;;;;;13.50;4.25;;;8.10;99.90;;;;;;5064556;28;20064;-56
2023/05/26 04:56:09;;;;;;;18.52;4.32;;;8.10;99.90;;;;;;5065922;28;20033;-57
2023/05/26 04:58:47;;;;;;;15.85;4.63;;;8.10;99.90;;;;;;5044516;28;20051;-57
2023/05/26 05:01:16;;;;;;;18.58;5.07;;;8.20;99.90;;;;;;5059055;28;20662;-57
2023/05/26 05:03:52;;;;;;;16.35;4.72;;;8.30;99.90;;;;;;5039595;28;20102;-57
2023/05/26 05:06:28;;;;;;;9.35;4.22;;;8.20;99.90;;;;;;5061020;28;20044;-56
2023/05/26 05:08:56;;;;;;;15.07;4.50;;;8.30;99.90;;;;;;5062494;28;20044;-57
2023/05/26 05:11:25;;;;;;;10.23;4.07;;;8.30;99.90;;;;;;5057058;28;20041;-57
2023/05/26 05:13:53;;;;;;;24.50;4.07;;;8.30;99.90;;;;;;5060968;28;20558;-58
2023/05/26 05:16:21;;;;;;;14.68;4.40;;;8.40;99.90;;;;;;5057946;28;20045;-57
2023/05/26 05:18:50;;;;;;;13.67;4.63;;;8.40;99.90;;;;;;5061976;28;20040;-57
2023/05/26 05:21:18;;;;;;;15.30;4.25;;;8.50;99.90;;;;;;5065618;28;20047;-55
2023/05/26 05:23:51;;;;;;;18.42;4.95;;;8.50;99.90;;;;;;5063322;28;20037;-56
2023/05/26 05:26:21;;;;;;;18.52;4.78;;;8.50;99.90;;;;;;5059392;28;20050;-57
2023/05/26 05:28:50;;;;;;;20.90;4.45;;;8.60;99.90;;;;;;5056200;28;22328;-56
2023/05/26 05:31:32;;;;;;;14.00;5.40;;;8.70;99.90;;;;;;5064128;28;20047;-56
2023/05/26 05:34:00;;;;;;;19.52;5.90;;;8.70;99.90;;;;;;5055435;28;20048;-57
2023/05/26 05:36:28;;;;;;;16.60;4.63;;;8.70;99.90;;;;;;5062249;28;20048;-58
2023/05/26 05:38:56;;;;;;;19.13;5.22;;;8.70;99.90;;;;;;5050575;28;20041;-58
2023/05/26 05:41:25;;;;;;;18.63;5.22;;;8.90;99.90;;;;;;5064522;28;20852;-57
2023/05/26 05:43:56;;;;;;;17.05;4.25;;;8.90;99.90;;;;;;5056999;28;20044;-56
2023/05/26 05:46:27;;;;;;;20.15;5.78;;;8.90;99.90;;;;;;5038700;28;20085;-57
2023/05/26 05:49:18;;;;;;;29.45;6.82;;;9.00;99.90;;;;;;5046119;28;20507;-57
2023/05/26 05:51:49;;;;;;;15.38;4.90;;;9.10;99.90;;;;;;5044271;28;20053;-55
2023/05/26 05:54:20;;;;;;;18.95;5.15;;;9.10;99.90;;;;;;5060747;28;20370;-57
2023/05/26 05:56:48;;;;;;;15.90;4.85;;;9.20;99.90;;;;;;5062640;28;20050;-56
2023/05/26 05:59:20;;;;;;;17.05;6.25;;;9.30;99.90;;;;;;5026193;28;20048;-56
2023/05/26 06:01:48;;;;;;;21.17;6.03;;;9.40;99.90;;;;;;5058270;28;20048;-57
2023/05/26 06:04:15;;;;;;;17.92;5.13;;;9.50;99.90;;;;;;5045149;28;20048;-57
2023/05/26 06:06:46;;;;;;;20.90;6.10;;;9.60;99.90;;;;;;5057757;28;20048;-57
2023/05/26 06:09:14;;;;;;;27.70;6.30;;;9.60;99.90;;;;;;5062916;28;20041;-57
2023/05/26 06:11:43;;;;;;;22.30;6.18;;;9.70;99.90;;;;;;5065927;28;20048;-56
2023/05/26 06:14:12;;;;;;;21.55;5.88;;;9.80;99.90;;;;;;5065917;28;20040;-58
2023/05/26 06:16:42;;;;;;;19.33;4.93;;;9.80;99.90;;;;;;5056746;28;20053;-57
2023/05/26 06:19:10;;;;;;;19.48;5.43;;;10.00;99.90;;;;;;5061357;28;20052;-56
2023/05/26 06:21:39;;;;;;;23.67;4.93;;;10.10;99.90;;;;;;5055951;28;20458;-57
2023/05/26 06:24:07;;;;;;;24.15;5.28;;;10.20;99.90;;;;;;5062059;28;20045;-57
2023/05/26 06:26:35;;;;;;;21.80;3.97;;;10.30;99.90;;;;;;5061709;28;20037;-56
2023/05/26 06:29:04;;;;;;;15.75;3.50;;;10.40;99.90;;;;;;5067005;28;20060;-56
2023/05/26 06:31:31;;;;;;;13.40;3.30;;;10.60;99.90;;;;;;5060679;28;20044;-58
2023/05/26 06:34:18;;;;;;;13.82;2.90;;;10.70;99.90;;;;;;5054459;28;20478;-57
2023/05/26 06:36:46;;;;;;;18.85;3.20;;;10.80;99.90;;;;;;5061224;28;20052;-57
2023/05/26 06:39:14;;;;;;;16.40;2.90;;;11.00;99.90;;;;;;5054730;28;20059;-57
2023/05/26 06:41:46;;;;;;;22.17;3.50;;;11.10;99.90;;;;;;5055899;28;20036;-56
2023/05/26 06:44:15;;;;;;;20.42;3.40;;;11.30;99.90;;;;;;5050096;28;20055;-58
2023/05/26 06:46:45;;;;;;;26.33;3.50;;;11.40;99.90;;;;;;5068109;28;20586;-57
2023/05/26 06:49:23;;;;;;;13.35;2.85;;;11.40;99.90;;;;;;5061456;28;20055;-58
2023/05/26 06:51:54;;;;;;;13.63;4.07;;;11.50;99.90;;;;;;5060688;28;20045;-58
2023/05/26 06:54:22;;;;;;;15.18;2.58;;;11.70;99.90;;;;;;5064779;28;20045;-58
2023/05/26 06:56:50;;;;;;;12.38;3.08;;;11.80;99.90;;;;;;5068559;28;20044;-56
2023/05/26 06:59:20;;;;;;;;;;;11.80;99.90;;;;;;5059036;28;20044;-57
2023/05/26 07:01:47;;;;;;;10.38;2.33;;;12.00;99.90;;;;;;5065373;28;19928;-57
2023/05/26 07:04:16;;;;;;;11.30;3.72;;;12.00;99.90;;;;;;5063345;28;20432;-57
2023/05/26 07:06:44;;;;;;;9.07;1.55;;;;;;;;;;5065985;28;20048;-58
2023/05/26 07:09:17;;;;;;;15.27;3.08;;;12.20;99.90;;;;;;5076145;28;20492;-58
2023/05/26 07:11:57;;;;;;;11.20;3.35;;;12.30;99.90;;;;;;5057960;28;20051;-58
2023/05/26 07:14:57;;;;;;;10.18;1.90;;;12.30;99.90;;;;;;5043586;28;20060;-59
2023/05/26 07:17:26;;;;;;;14.55;2.38;;;12.40;99.90;;;;;;5064555;28;20029;-59
2023/05/26 07:19:56;;;;;;;11.07;2.47;;;12.50;99.90;;;;;;5058608;28;20044;-58
2023/05/26 07:22:25;;;;;;;10.27;2.03;;;12.60;99.90;;;;;;5065694;28;20047;-58
2023/05/26 07:25:04;;;;;;;11.48;2.15;;;12.60;99.90;;;;;;5068689;28;20059;-58
2023/05/26 07:27:40;;;;;;;15.57;2.58;;;12.70;99.90;;;;;;5067946;28;20056;-58
2023/05/26 07:30:09;;;;;;;5.53;2.35;;;12.80;99.90;;;;;;5042402;28;20127;-57
2023/05/26 07:32:49;;;;;;;12.10;2.00;;;12.80;99.90;;;;;;5061031;28;20044;-57
2023/05/26 07:35:19;;;;;;;11.05;2.05;;;12.90;99.90;;;;;;5060440;28;20048;-58
2023/05/26 07:37:47;;;;;;;11.68;2.05;;;13.00;99.90;;;;;;5070491;28;20055;-57
2023/05/26 07:40:15;;;;;;;10.73;2.05;;;13.10;99.90;;;;;;5078854;28;20045;-58
2023/05/26 07:42:44;;;;;;;6.93;1.83;;;13.10;99.90;;;;;;5065937;28;20048;-59
2023/05/26 07:45:12;;;;;;;15.73;1.90;;;13.20;99.90;;;;;;5050608;28;20048;-57
2023/05/26 07:47:40;;;;;;;8.27;2.53;;;;;;;;;;5054229;28;20060;-57
2023/05/26 07:50:09;;;;;;;9.80;2.33;;;13.40;99.90;;;;;;5058494;28;20420;-59
2023/05/26 07:52:37;;;;;;;8.60;1.38;;;13.50;99.90;;;;;;5058917;28;20048;-59
2023/05/26 07:55:05;;;;;;;8.85;1.58;;;13.60;99.90;;;;;;5065229;28;20960;-57
2023/05/26 07:57:33;;;;;;;5.53;1.50;;;13.60;99.90;;;;;;5065138;28;20036;-57
2023/05/26 08:00:00;;;;;;;6.00;1.90;;;13.70;99.90;;;;;;5065543;28;20053;-58
2023/05/26 08:02:29;;;;;;;6.43;1.60;;;13.80;99.90;;;;;;5039666;28;20037;-58
2023/05/26 08:04:57;;;;;;;12.55;3.08;;;13.10;99.90;;;;;;5060374;28;20381;-57
2023/05/26 08:07:25;;;;;;;5.18;1.05;;;13.90;99.90;;;;;;5064270;28;20036;-58
2023/05/26 08:09:53;;;;;;;8.40;2.03;;;14.00;99.90;;;;;;5064533;28;20060;-58
2023/05/26 08:12:21;;;;;;;13.43;2.47;;;14.10;99.90;;;;;;5055964;28;20040;-58
2023/05/26 08:14:49;;;;;;;4.72;1.83;;;14.10;99.90;;;;;;5053849;28;20124;-58
2023/05/26 08:17:17;;;;;;;7.80;1.98;;;14.20;99.90;;;;;;5068250;28;20049;-57
2023/05/26 08:19:45;;;;;;;9.23;1.73;;;14.20;99.90;;;;;;5062415;28;20040;-57
2023/05/26 08:22:12;;;;;;;8.70;2.17;;;14.30;99.90;;;;;;5067880;28;20051;-57
2023/05/26 08:24:40;;;;;;;9.07;1.73;;;14.30;99.90;;;;;;5066541;28;20468;-59
2023/05/26 08:27:09;;;;;;;9.68;2.05;;;14.40;99.90;;;;;;5069252;28;20384;-57
2023/05/26 08:29:37;;;;;;;6.47;1.80;;;14.50;99.90;;;;;;5088740;28;20059;-58
2023/05/26 08:32:05;;;;;;;8.18;2.00;;;14.50;99.90;;;;;;5070796;28;20055;-57
2023/05/26 08:34:33;;;;;;;7.88;2.20;;;14.60;99.90;;;;;;5061004;28;20049;-57
2023/05/26 08:37:01;;;;;;;5.95;1.98;;;14.70;99.90;;;;;;5048483;28;20037;-58
2023/05/26 08:39:28;;;;;;;11.68;2.10;;;14.80;99.90;;;;;;5086809;28;20044;-59
2023/05/26 08:42:02;;;;;;;5.88;1.67;;;14.80;99.90;;;;;;5065528;28;20055;-58
2023/05/26 08:44:30;;;;;;;12.98;2.70;;;14.90;99.90;;;;;;5063636;28;20041;-58
2023/05/26 08:47:00;;;;;;;11.32;2.50;;;15.00;99.90;;;;;;5049995;28;20057;-58
2023/05/26 08:49:36;;;;;;;8.25;2.05;;;15.10;99.90;;;;;;5060332;28;20518;-58
2023/05/26 08:52:11;;;;;;;10.68;2.03;;;15.10;99.90;;;;;;5053569;28;20040;-57
2023/05/26 08:54:39;;;;;;;10.48;2.15;;;15.20;99.90;;;;;;5066545;28;20055;-57
2023/05/26 08:57:09;;;;;;;6.28;1.77;;;15.30;99.90;;;;;;5055280;28;20052;-58
2023/05/26 08:59:38;;;;;;;8.18;1.95;;;15.30;99.90;;;;;;5073010;28;20056;-57
2023/05/26 09:02:06;;;;;;;9.45;2.20;;;15.30;99.90;;;;;;5067575;28;20052;-57
2023/05/26 09:04:35;;;;;;;9.93;2.17;;;15.50;99.90;;;;;;5060841;28;20369;-58
2023/05/26 09:07:06;;;;;;;10.38;2.08;;;15.60;99.90;;;;;;5076758;28;20044;-58
2023/05/26 09:09:53;;;;;;;7.47;2.00;;;15.70;99.90;;;;;;5088066;28;20060;-59
2023/05/26 09:12:22;;;;;;;9.98;1.95;;;15.80;99.90;;;;;;5066067;28;20052;-58
2023/05/26 09:14:50;;;;;;;7.85;2.42;;;15.90;99.90;;;;;;5066390;28;20044;-59
2023/05/26 09:17:19;;;;;;;11.85;2.22;;;15.90;99.90;;;;;;5065310;28;20773;-58
2023/05/26 09:19:47;;;;;;;7.53;2.00;;;16.00;99.90;;;;;;5061584;28;20068;-59
2023/05/26 09:22:22;;;;;;;7.40;1.98;;;16.10;99.90;;;;;;5068697;28;20055;-58
2023/05/26 09:24:50;;;;;;;8.50;2.78;;;16.20;99.90;;;;;;5050276;28;20072;-58
2023/05/26 09:27:23;;;;;;;5.78;1.83;;;16.20;99.90;;;;;;5059083;28;20048;-58
2023/05/26 09:29:53;;;;;;;6.63;2.00;;;16.40;99.90;;;;;;5088058;28;20126;-59
2023/05/26 09:32:25;;;;;;;;;;;16.50;99.90;;;;;;5077775;28;20043;-58
2023/05/26 09:34:59;;;;;;;8.52;2.00;;;16.60;99.90;;;;;;5059004;28;19943;-58
2023/05/26 09:37:32;;;;;;;7.97;1.80;;;16.70;99.90;;;;;;5054862;28;20048;-58
2023/05/26 09:40:10;;;;;;;9.27;1.98;;;16.80;99.90;;;;;;5066674;28;20045;-58
2023/05/26 09:42:45;;;;;;;10.77;2.22;;;16.90;99.90;;;;;;5068720;28;20040;-58
2023/05/26 09:45:13;;;;;;;5.90;1.60;;;17.10;99.90;;;;;;5066039;28;20048;-56
2023/05/26 09:47:41;;;;;;;7.10;1.70;;;17.20;99.90;;;;;;5063817;28;20044;-59
2023/05/26 09:50:09;;;;;;;10.38;2.22;;;17.40;99.90;;;;;;5051570;28;20396;-59
2023/05/26 09:52:37;;;;;;;7.55;2.25;;;17.50;99.90;;;;;;5054681;28;20053;-58
2023/05/26 09:55:07;;;;;;;9.10;2.15;;;17.70;99.90;;;;;;5066839;28;20036;-58
2023/05/26 09:57:37;;;;;;;8.43;2.90;;;17.80;99.90;;;;;;5065803;28;20078;-58
2023/05/26 10:00:09;;;;;;;;;;;17.90;99.90;;;;;;5065949;28;20044;-59
2023/05/26 10:02:39;;;;;;;10.73;2.30;;;18.00;99.90;;;;;;5063389;28;19943;-58
2023/05/26 10:05:08;;;;;;;6.15;2.05;;;18.20;99.90;;;;;;5063032;28;20045;-57
2023/05/26 10:07:40;;;;;;;5.55;1.50;;;18.30;99.90;;;;;;5071955;28;20066;-58
2023/05/26 10:10:11;;;;;;;8.23;1.92;;;18.50;99.90;;;;;;5062114;28;20049;-58
2023/05/26 10:12:41;;;;;;;9.93;2.58;;;18.80;99.90;;;;;;5062799;28;20040;-57
2023/05/26 10:15:09;;;;;;;9.48;2.25;;;19.00;99.90;;;;;;5064406;28;20059;-57
2023/05/26 10:17:38;;;;;;;10.05;2.30;;;19.20;99.90;;;;;;5059406;28;20048;-58
2023/05/26 10:20:08;;;;;;;6.40;1.95;;;19.40;99.90;;;;;;5064873;28;20484;-58
2023/05/26 10:22:54;;;;;;;5.07;1.70;;;19.50;99.90;;;;;;5070447;28;20396;-58
2023/05/26 10:25:26;;;;;;;6.40;2.08;;;19.70;99.10;;;;;;5067895;28;20415;-57
2023/05/26 10:27:59;;;;;;;12.15;2.60;;;19.70;99.30;;;;;;5070730;28;20061;-59
2023/05/26 10:30:28;;;;;;;9.60;1.92;;;19.80;99.30;;;;;;5070023;28;20055;-59
2023/05/26 10:33:08;;;;;;;8.67;2.10;;;19.80;98.50;;;;;;5067010;28;20048;-59
2023/05/26 10:35:37;;;;;;;9.23;2.20;;;19.80;98.40;;;;;;5065568;28;20064;-60
2023/05/26 10:38:05;;;;;;;7.82;2.28;;;19.80;98.50;;;;;;5066773;28;20514;-59
2023/05/26 10:40:33;;;;;;;10.93;1.73;;;19.90;98.10;;;;;;5070794;28;20052;-56
2023/05/26 10:43:11;;;;;;;12.95;2.35;;;20.00;97.90;;;;;;5070384;28;20422;-57
2023/05/26 10:46:07;;;;;;;17.08;2.47;;;20.10;97.10;;;;;;5069555;28;20056;-58
2023/05/26 10:48:55;;;;;;;14.85;2.25;;;20.10;97.30;;;;;;5065482;28;20377;-58
2023/05/26 10:51:27;;;;;;;10.85;2.35;;;20.10;97.30;;;;;;5065169;28;20040;-58
2023/05/26 10:54:13;;;;;;;10.80;2.53;;;20.00;97.30;;;;;;5069695;28;20056;-58
2023/05/26 10:56:42;;;;;;;8.70;2.78;;;20.10;97.50;;;;;;5056015;28;20056;-59
2023/05/26 10:59:33;;;;;;;9.87;2.57;;;20.10;96.50;;;;;;5063924;28;20048;-59
2023/05/26 11:02:06;;;;;;;13.55;2.65;;;20.10;96.70;;;;;;5047229;28;20067;-59
2023/05/26 11:04:45;;;;;;;17.80;2.78;;;20.20;96.80;;;;;;5061207;28;20518;-57
2023/05/26 11:07:26;;;;;;;9.45;2.58;;;20.30;97.00;;;;;;5054859;28;20028;-59
2023/05/26 11:09:58;;;;;;;8.13;2.55;;;20.20;96.70;;;;;;5063343;28;20048;-58
2023/05/26 11:12:36;;;;;;;14.15;3.28;;;20.20;97.70;;;;;;5063740;28;20060;-59
2023/05/26 11:15:26;;;;;;;10.77;3.40;;;20.30;97.30;;;;;;5060876;28;20052;-59
2023/05/26 11:17:56;;;;;;;7.85;3.00;;;20.40;96.90;;;;;;5060032;28;20049;-59
2023/05/26 11:20:24;;;;;;;11.50;3.47;;;20.50;96.90;;;;;;5062574;28;20037;-59
2023/05/26 11:22:53;;;;;;;8.57;2.90;;;20.60;96.60;;;;;;5059323;28;20044;-59
2023/05/26 11:25:21;;;;;;;10.30;3.05;;;20.60;96.10;;;;;;5065753;28;20041;-59
2023/05/26 11:27:49;;;;;;;6.22;2.95;;;20.50;95.50;;;;;;5071414;28;20060;-57
2023/05/26 11:30:21;;;;;;;12.77;3.05;;;20.40;96.30;;;;;;5057414;28;20504;-59
2023/05/26 11:32:51;;;;;;;10.68;3.00;;;20.30;96.40;;;;;;5062480;28;20048;-58
2023/05/26 11:35:26;;;;;;;6.40;1.95;;;20.30;96.60;;;;;;5058671;28;20048;-58
2023/05/26 11:37:55;;;;;;;13.43;3.30;;;20.30;97.00;;;;;;5056893;28;20543;-58
2023/05/26 11:40:23;;;;;;;15.52;3.03;;;20.30;97.50;;;;;;5081891;28;20415;-58
2023/05/26 11:42:56;;;;;;;9.25;2.55;;;20.50;97.50;;;;;;5053817;28;20052;-57
2023/05/26 11:45:25;;;;;;;13.23;3.13;;;20.80;96.90;;;;;;5060685;28;20036;-58
2023/05/26 11:47:53;;;;;;;10.75;2.92;;;21.40;95.60;;;;;;5057419;28;20053;-58
2023/05/26 11:50:21;;;;;;;9.32;2.95;;;21.40;95.80;;;;;;5060779;28;20059;-58
2023/05/26 11:52:50;;;;;;;15.05;3.47;;;21.70;94.00;;;;;;5061506;28;20075;-59
2023/05/26 11:55:18;;;;;;;8.82;2.75;;;22.00;94.10;;;;;;5058747;28;20049;-59
2023/05/26 11:57:47;;;;;;;8.70;2.93;;;22.30;94.10;;;;;;5046445;28;20052;-59
2023/05/26 12:00:18;;;;;;;11.23;3.40;;;22.60;92.20;;;;;;5052318;28;20056;-59
2023/05/26 12:02:47;;;;;;;6.22;2.53;;;22.70;91.30;;;;;;5055520;28;20044;-59
2023/05/26 12:05:29;;;;;;;8.00;2.55;;;22.90;91.20;;;;;;5056271;28;20406;-59
2023/05/26 12:08:07;;;;;;;15.85;3.53;;;23.30;91.70;;;;;;5062001;28;20523;-59
2023/05/26 12:10:40;;;;;;;8.68;2.83;;;24.40;90.00;;;;;;5062664;28;20051;-59
2023/05/26 12:13:08;;;;;;;12.38;2.90;;;;;;;;;;5061908;28;20064;-59
2023/05/26 12:15:36;;;;;;;9.02;3.30;;;24.70;85.10;;;;;;5045710;28;20476;-59
2023/05/26 12:18:04;;;;;;;8.73;3.10;;;24.50;83.00;;;;;;5060479;28;20129;-60
2023/05/26 12:20:32;;;;;;;6.25;2.72;;;24.30;82.80;;;;;;5083589;28;20058;-57
2023/05/26 12:23:05;;;;;;;7.90;2.45;;;24.40;84.30;;;;;;5053476;28;20047;-59
2023/05/26 12:25:34;;;;;;;7.90;2.65;;;24.40;84.40;;;;;;5058716;28;20487;-60
2023/05/26 12:28:02;;;;;;;6.95;2.53;;;24.70;82.10;;;;;;5064773;28;20455;-58
2023/05/26 12:30:36;;;;;;;6.60;2.20;;;24.90;82.00;;;;;;5060966;28;20497;-59
2023/05/26 12:33:24;;;;;;;8.60;2.88;;;25.20;80.70;;;;;;5046071;28;20131;-58
2023/05/26 12:35:51;;;;;;;6.85;3.00;;;25.70;81.30;;;;;;5045567;28;20060;-59
2023/05/26 12:38:21;;;;;;;6.60;2.60;;;26.30;81.30;;;;;;5051539;28;20036;-60
2023/05/26 12:40:49;;;;;;;7.23;2.50;;;26.70;78.40;;;;;;5051096;28;20080;-59
2023/05/26 12:43:16;;;;;;;11.52;2.80;;;27.00;76.30;;;;;;5057909;28;20301;-59
2023/05/26 12:45:44;;;;;;;8.13;2.78;;;26.80;74.00;;;;;;5046887;28;20044;-59
2023/05/26 12:48:12;;;;;;;8.35;2.75;;;26.40;72.80;;;;;;5048855;28;20045;-59
2023/05/26 12:50:40;;;;;;;8.77;2.83;;;25.90;74.00;;;;;;5060066;28;20044;-59
2023/05/26 12:53:08;;;;;;;8.52;2.80;;;25.50;74.40;;;;;;5055110;28;20059;-58
2023/05/26 12:55:36;;;;;;;12.13;2.50;;;24.90;75.20;;;;;;5055665;28;20048;-58
2023/05/26 12:58:04;;;;;;;6.30;2.22;;;24.30;75.60;;;;;;5064342;28;20052;-60
2023/05/26 13:00:31;;;;;;;9.00;2.95;;;24.00;76.90;;;;;;5049140;28;20045;-58
2023/05/26 13:03:01;;;;;;;;;;;24.10;80.00;;;;;;5045274;28;20045;-60
2023/05/26 13:05:29;;;;;;;10.35;2.85;;;24.60;79.10;;;;;;5043590;28;19921;-57
2023/05/26 13:07:58;;;;;;;5.68;2.45;;;25.10;77.90;;;;;;5049013;28;20524;-59